sensor_id;sensor_type;location;lat;lon;timestamp;P1;durP1;ratioP1;P2;durP2;ratioP2
30420;SDS011;17218;54.070;10.012;2022-12-07T00:01:50;15.10;;;11.00;;
30420;SDS011;17218;54.070;10.012;2022-12-07T00:04:19;15.23;;;11.00;;
30420;SDS011;17218;54.070;10.012;2022-12-07T00:06:46;18.07;;;11.60;;
30420;SDS011;17218;54.070;10.012;2022-12-07T00:09:16;17.60;;;11.73;;
30420;SDS011;17218;54.070;10.012;2022-12-07T00:11:44;16.13;;;11.13;;
30420;SDS011;17218;54.070;10.012;2022-12-07T00:14:15;14.83;;;11.63;;
30420;SDS011;17218;54.070;10.012;2022-12-07T00:16:43;16.27;;;11.87;;
30420;SDS011;17218;54.070;10.012;2022-12-07T00:19:10;16.80;;;12.30;;
30420;SDS011;17218;54.070;10.012;2022-12-07T00:21:38;18.77;;;12.43;;
30420;SDS011;17218;54.070;10.012;2022-12-07T00:24:05;17.33;;;12.50;;
30420;SDS011;17218;54.070;10.012;2022-12-07T00:26:33;17.57;;;12.77;;
30420;SDS011;17218;54.070;10.012;2022-12-07T00:29:01;16.00;;;11.63;;
30420;SDS011;17218;54.070;10.012;2022-12-07T00:31:32;18.47;;;12.73;;
30420;SDS011;17218;54.070;10.012;2022-12-07T00:34:03;18.63;;;13.00;;
30420;SDS011;17218;54.070;10.012;2022-12-07T00:36:30;19.63;;;13.23;;
30420;SDS011;17218;54.070;10.012;2022-12-07T00:38:58;16.70;;;13.20;;
30420;SDS011;17218;54.070;10.012;2022-12-07T00:41:27;20.50;;;13.13;;
30420;SDS011;17218;54.070;10.012;2022-12-07T00:43:54;20.60;;;13.90;;
30420;SDS011;17218;54.070;10.012;2022-12-07T00:46:21;26.60;;;14.30;;
30420;SDS011;17218;54.070;10.012;2022-12-07T00:48:51;24.13;;;15.10;;
30420;SDS011;17218;54.070;10.012;2022-12-07T00:51:19;20.67;;;15.17;;
30420;SDS011;17218;54.070;10.012;2022-12-07T00:53:47;21.77;;;14.70;;
30420;SDS011;17218;54.070;10.012;2022-12-07T00:56:15;37.97;;;16.70;;
30420;SDS011;17218;54.070;10.012;2022-12-07T00:58:43;33.47;;;15.63;;
30420;SDS011;17218;54.070;10.012;2022-12-07T01:01:10;37.03;;;17.60;;
30420;SDS011;17218;54.070;10.012;2022-12-07T01:03:37;26.20;;;16.40;;
30420;SDS011;17218;54.070;10.012;2022-12-07T01:06:05;28.83;;;16.73;;
30420;SDS011;17218;54.070;10.012;2022-12-07T01:08:32;25.13;;;16.90;;
30420;SDS011;17218;54.070;10.012;2022-12-07T01:10:59;33.40;;;16.50;;
30420;SDS011;17218;54.070;10.012;2022-12-07T01:13:28;29.27;;;17.50;;
30420;SDS011;17218;54.070;10.012;2022-12-07T01:15:56;23.80;;;15.33;;
30420;SDS011;17218;54.070;10.012;2022-12-07T01:18:24;26.07;;;15.90;;
30420;SDS011;17218;54.070;10.012;2022-12-07T01:20:57;27.27;;;15.43;;
30420;SDS011;17218;54.070;10.012;2022-12-07T01:23:26;27.57;;;15.83;;
30420;SDS011;17218;54.070;10.012;2022-12-07T01:25:56;28.27;;;16.60;;
30420;SDS011;17218;54.070;10.012;2022-12-07T01:28:23;26.80;;;16.87;;
30420;SDS011;17218;54.070;10.012;2022-12-07T01:30:59;24.40;;;15.77;;
30420;SDS011;17218;54.070;10.012;2022-12-07T01:33:28;25.97;;;15.70;;
30420;SDS011;17218;54.070;10.012;2022-12-07T01:36:00;21.23;;;15.70;;
30420;SDS011;17218;54.070;10.012;2022-12-07T01:38:29;25.37;;;15.93;;
30420;SDS011;17218;54.070;10.012;2022-12-07T01:40:56;21.73;;;15.37;;
30420;SDS011;17218;54.070;10.012;2022-12-07T01:43:23;19.43;;;14.00;;
30420;SDS011;17218;54.070;10.012;2022-12-07T01:45:52;18.30;;;12.67;;
30420;SDS011;17218;54.070;10.012;2022-12-07T01:48:19;17.40;;;12.00;;
30420;SDS011;17218;54.070;10.012;2022-12-07T01:50:50;15.20;;;10.50;;
30420;SDS011;17218;54.070;10.012;2022-12-07T01:53:20;16.80;;;9.77;;
30420;SDS011;17218;54.070;10.012;2022-12-07T01:55:49;16.10;;;10.10;;
30420;SDS011;17218;54.070;10.012;2022-12-07T01:58:19;17.90;;;10.10;;
30420;SDS011;17218;54.070;10.012;2022-12-07T02:00:47;13.70;;;9.13;;
30420;SDS011;17218;54.070;10.012;2022-12-07T02:03:15;13.33;;;8.90;;
30420;SDS011;17218;54.070;10.012;2022-12-07T02:05:46;11.77;;;8.00;;
30420;SDS011;17218;54.070;10.012;2022-12-07T02:08:14;10.23;;;7.23;;
30420;SDS011;17218;54.070;10.012;2022-12-07T02:10:41;9.53;;;6.17;;
30420;SDS011;17218;54.070;10.012;2022-12-07T02:13:09;11.77;;;6.63;;
30420;SDS011;17218;54.070;10.012;2022-12-07T02:15:41;11.73;;;6.50;;
30420;SDS011;17218;54.070;10.012;2022-12-07T02:18:19;9.10;;;5.77;;
30420;SDS011;17218;54.070;10.012;2022-12-07T02:20:56;8.07;;;4.37;;
30420;SDS011;17218;54.070;10.012;2022-12-07T02:23:35;6.20;;;4.27;;
30420;SDS011;17218;54.070;10.012;2022-12-07T02:26:22;6.23;;;4.00;;
30420;SDS011;17218;54.070;10.012;2022-12-07T02:29:13;4.00;;;2.87;;
30420;SDS011;17218;54.070;10.012;2022-12-07T02:31:50;4.97;;;2.83;;
30420;SDS011;17218;54.070;10.012;2022-12-07T02:34:31;3.83;;;2.57;;
30420;SDS011;17218;54.070;10.012;2022-12-07T02:37:07;3.47;;;2.27;;
30420;SDS011;17218;54.070;10.012;2022-12-07T02:39:42;4.70;;;2.70;;
30420;SDS011;17218;54.070;10.012;2022-12-07T02:42:14;3.60;;;2.20;;
30420;SDS011;17218;54.070;10.012;2022-12-07T02:44:46;4.20;;;2.20;;
30420;SDS011;17218;54.070;10.012;2022-12-07T02:47:14;7.37;;;2.10;;
30420;SDS011;17218;54.070;10.012;2022-12-07T02:49:43;3.27;;;2.30;;
30420;SDS011;17218;54.070;10.012;2022-12-07T02:52:10;3.37;;;2.33;;
30420;SDS011;17218;54.070;10.012;2022-12-07T02:54:37;4.37;;;2.50;;
30420;SDS011;17218;54.070;10.012;2022-12-07T02:57:06;3.57;;;2.60;;
30420;SDS011;17218;54.070;10.012;2022-12-07T02:59:47;3.80;;;2.70;;
30420;SDS011;17218;54.070;10.012;2022-12-07T03:02:26;3.70;;;2.60;;
30420;SDS011;17218;54.070;10.012;2022-12-07T03:05:05;5.93;;;2.80;;
30420;SDS011;17218;54.070;10.012;2022-12-07T03:07:42;5.13;;;3.23;;
30420;SDS011;17218;54.070;10.012;2022-12-07T03:10:17;8.73;;;4.10;;
30420;SDS011;17218;54.070;10.012;2022-12-07T03:12:51;7.33;;;4.27;;
30420;SDS011;17218;54.070;10.012;2022-12-07T03:15:31;6.47;;;4.70;;
30420;SDS011;17218;54.070;10.012;2022-12-07T03:18:00;7.10;;;4.73;;
30420;SDS011;17218;54.070;10.012;2022-12-07T03:20:29;7.40;;;4.93;;
30420;SDS011;17218;54.070;10.012;2022-12-07T03:22:58;6.43;;;4.70;;
30420;SDS011;17218;54.070;10.012;2022-12-07T03:25:25;9.20;;;5.73;;
30420;SDS011;17218;54.070;10.012;2022-12-07T03:27:54;6.90;;;5.00;;
30420;SDS011;17218;54.070;10.012;2022-12-07T03:30:24;7.70;;;5.03;;
30420;SDS011;17218;54.070;10.012;2022-12-07T03:32:58;6.77;;;4.67;;
30420;SDS011;17218;54.070;10.012;2022-12-07T03:35:31;9.43;;;4.67;;
30420;SDS011;17218;54.070;10.012;2022-12-07T03:38:02;5.57;;;4.07;;
30420;SDS011;17218;54.070;10.012;2022-12-07T03:40:39;7.80;;;5.00;;
30420;SDS011;17218;54.070;10.012;2022-12-07T03:43:10;8.03;;;4.63;;
30420;SDS011;17218;54.070;10.012;2022-12-07T03:45:38;7.23;;;5.00;;
30420;SDS011;17218;54.070;10.012;2022-12-07T03:48:10;8.90;;;5.60;;
30420;SDS011;17218;54.070;10.012;2022-12-07T03:50:47;7.47;;;5.10;;
30420;SDS011;17218;54.070;10.012;2022-12-07T03:53:18;9.77;;;5.83;;
30420;SDS011;17218;54.070;10.012;2022-12-07T03:55:48;9.83;;;5.67;;
30420;SDS011;17218;54.070;10.012;2022-12-07T03:58:16;8.53;;;6.30;;
30420;SDS011;17218;54.070;10.012;2022-12-07T04:00:45;8.33;;;5.83;;
30420;SDS011;17218;54.070;10.012;2022-12-07T04:03:13;10.80;;;6.23;;
30420;SDS011;17218;54.070;10.012;2022-12-07T04:05:40;11.57;;;6.67;;
30420;SDS011;17218;54.070;10.012;2022-12-07T04:08:07;8.87;;;5.60;;
30420;SDS011;17218;54.070;10.012;2022-12-07T04:10:34;8.67;;;5.23;;
30420;SDS011;17218;54.070;10.012;2022-12-07T04:13:01;7.73;;;5.53;;
30420;SDS011;17218;54.070;10.012;2022-12-07T04:15:28;10.17;;;6.90;;
30420;SDS011;17218;54.070;10.012;2022-12-07T04:17:54;7.33;;;5.07;;
30420;SDS011;17218;54.070;10.012;2022-12-07T04:20:22;7.77;;;4.93;;
30420;SDS011;17218;54.070;10.012;2022-12-07T04:22:49;8.67;;;5.50;;
30420;SDS011;17218;54.070;10.012;2022-12-07T04:25:16;8.67;;;5.47;;
30420;SDS011;17218;54.070;10.012;2022-12-07T04:27:42;5.63;;;4.73;;
30420;SDS011;17218;54.070;10.012;2022-12-07T04:30:09;7.30;;;5.07;;
30420;SDS011;17218;54.070;10.012;2022-12-07T04:32:36;6.97;;;4.73;;
30420;SDS011;17218;54.070;10.012;2022-12-07T04:35:03;5.80;;;4.43;;
30420;SDS011;17218;54.070;10.012;2022-12-07T04:37:31;6.83;;;4.73;;
30420;SDS011;17218;54.070;10.012;2022-12-07T04:39:58;7.53;;;5.00;;
30420;SDS011;17218;54.070;10.012;2022-12-07T04:42:25;6.93;;;5.13;;
30420;SDS011;17218;54.070;10.012;2022-12-07T04:44:51;8.00;;;5.03;;
30420;SDS011;17218;54.070;10.012;2022-12-07T04:47:18;6.90;;;4.73;;
30420;SDS011;17218;54.070;10.012;2022-12-07T04:49:45;8.03;;;4.63;;
30420;SDS011;17218;54.070;10.012;2022-12-07T04:52:12;6.70;;;4.63;;
30420;SDS011;17218;54.070;10.012;2022-12-07T04:54:40;7.57;;;5.07;;
30420;SDS011;17218;54.070;10.012;2022-12-07T04:57:06;6.40;;;4.50;;
30420;SDS011;17218;54.070;10.012;2022-12-07T04:59:33;6.97;;;4.70;;
30420;SDS011;17218;54.070;10.012;2022-12-07T05:01:59;7.60;;;4.90;;
30420;SDS011;17218;54.070;10.012;2022-12-07T05:04:26;7.53;;;4.17;;
30420;SDS011;17218;54.070;10.012;2022-12-07T05:06:53;5.70;;;3.90;;
30420;SDS011;17218;54.070;10.012;2022-12-07T05:09:19;8.30;;;4.90;;
30420;SDS011;17218;54.070;10.012;2022-12-07T05:11:47;7.03;;;4.37;;
30420;SDS011;17218;54.070;10.012;2022-12-07T05:14:15;6.37;;;4.07;;
30420;SDS011;17218;54.070;10.012;2022-12-07T05:16:43;6.23;;;4.40;;
30420;SDS011;17218;54.070;10.012;2022-12-07T05:19:11;11.23;;;4.80;;
30420;SDS011;17218;54.070;10.012;2022-12-07T05:21:38;5.70;;;4.60;;
30420;SDS011;17218;54.070;10.012;2022-12-07T05:24:06;5.83;;;4.43;;
30420;SDS011;17218;54.070;10.012;2022-12-07T05:26:33;6.67;;;4.20;;
30420;SDS011;17218;54.070;10.012;2022-12-07T05:29:02;7.70;;;4.80;;
30420;SDS011;17218;54.070;10.012;2022-12-07T05:31:29;5.77;;;4.67;;
30420;SDS011;17218;54.070;10.012;2022-12-07T05:33:56;6.23;;;4.70;;
30420;SDS011;17218;54.070;10.012;2022-12-07T05:36:23;7.57;;;4.30;;
30420;SDS011;17218;54.070;10.012;2022-12-07T05:38:49;6.50;;;4.57;;
30420;SDS011;17218;54.070;10.012;2022-12-07T05:41:17;6.63;;;5.03;;
30420;SDS011;17218;54.070;10.012;2022-12-07T05:44:03;7.67;;;4.70;;
30420;SDS011;17218;54.070;10.012;2022-12-07T05:46:30;6.37;;;4.73;;
30420;SDS011;17218;54.070;10.012;2022-12-07T05:48:57;6.50;;;4.90;;
30420;SDS011;17218;54.070;10.012;2022-12-07T05:51:24;7.07;;;5.40;;
30420;SDS011;17218;54.070;10.012;2022-12-07T05:53:51;6.20;;;4.87;;
30420;SDS011;17218;54.070;10.012;2022-12-07T05:56:17;8.17;;;5.03;;
30420;SDS011;17218;54.070;10.012;2022-12-07T05:58:44;6.20;;;4.87;;
30420;SDS011;17218;54.070;10.012;2022-12-07T06:01:29;7.63;;;4.03;;
30420;SDS011;17218;54.070;10.012;2022-12-07T06:03:56;7.77;;;4.77;;
30420;SDS011;17218;54.070;10.012;2022-12-07T06:06:23;5.47;;;4.10;;
30420;SDS011;17218;54.070;10.012;2022-12-07T06:08:49;5.83;;;4.43;;
30420;SDS011;17218;54.070;10.012;2022-12-07T06:11:16;10.20;;;4.90;;
30420;SDS011;17218;54.070;10.012;2022-12-07T06:14:00;7.13;;;4.57;;
30420;SDS011;17218;54.070;10.012;2022-12-07T06:16:26;6.97;;;4.90;;
30420;SDS011;17218;54.070;10.012;2022-12-07T06:18:54;7.20;;;4.70;;
30420;SDS011;17218;54.070;10.012;2022-12-07T06:21:21;7.67;;;5.33;;
30420;SDS011;17218;54.070;10.012;2022-12-07T06:23:47;7.57;;;4.63;;
30420;SDS011;17218;54.070;10.012;2022-12-07T06:26:15;6.13;;;4.27;;
30420;SDS011;17218;54.070;10.012;2022-12-07T06:28:42;9.40;;;5.40;;
30420;SDS011;17218;54.070;10.012;2022-12-07T06:31:08;8.57;;;4.43;;
30420;SDS011;17218;54.070;10.012;2022-12-07T06:33:35;6.57;;;4.60;;
30420;SDS011;17218;54.070;10.012;2022-12-07T06:36:04;8.73;;;4.87;;
30420;SDS011;17218;54.070;10.012;2022-12-07T06:38:31;6.63;;;4.90;;
30420;SDS011;17218;54.070;10.012;2022-12-07T06:40:57;6.63;;;4.97;;
30420;SDS011;17218;54.070;10.012;2022-12-07T06:43:24;5.93;;;4.33;;
30420;SDS011;17218;54.070;10.012;2022-12-07T06:45:51;8.13;;;4.00;;
30420;SDS011;17218;54.070;10.012;2022-12-07T06:48:17;5.30;;;4.00;;
30420;SDS011;17218;54.070;10.012;2022-12-07T06:50:44;7.30;;;4.87;;
30420;SDS011;17218;54.070;10.012;2022-12-07T06:53:12;5.37;;;4.37;;
30420;SDS011;17218;54.070;10.012;2022-12-07T06:55:39;8.17;;;4.90;;
30420;SDS011;17218;54.070;10.012;2022-12-07T06:58:06;5.97;;;4.00;;
30420;SDS011;17218;54.070;10.012;2022-12-07T07:00:33;7.70;;;4.63;;
30420;SDS011;17218;54.070;10.012;2022-12-07T07:03:00;6.77;;;4.33;;
30420;SDS011;17218;54.070;10.012;2022-12-07T07:05:26;7.00;;;4.50;;
30420;SDS011;17218;54.070;10.012;2022-12-07T07:07:53;6.17;;;4.20;;
30420;SDS011;17218;54.070;10.012;2022-12-07T07:10:21;7.63;;;4.33;;
30420;SDS011;17218;54.070;10.012;2022-12-07T07:12:47;6.67;;;4.77;;
30420;SDS011;17218;54.070;10.012;2022-12-07T07:15:14;6.67;;;4.23;;
30420;SDS011;17218;54.070;10.012;2022-12-07T07:17:41;6.70;;;3.80;;
30420;SDS011;17218;54.070;10.012;2022-12-07T07:20:08;6.33;;;4.47;;
30420;SDS011;17218;54.070;10.012;2022-12-07T07:22:35;6.33;;;3.77;;
30420;SDS011;17218;54.070;10.012;2022-12-07T07:25:02;7.77;;;4.07;;
30420;SDS011;17218;54.070;10.012;2022-12-07T07:27:30;6.90;;;4.33;;
30420;SDS011;17218;54.070;10.012;2022-12-07T07:29:57;8.27;;;4.70;;
30420;SDS011;17218;54.070;10.012;2022-12-07T07:32:23;6.33;;;4.70;;
30420;SDS011;17218;54.070;10.012;2022-12-07T07:34:50;5.93;;;4.00;;
30420;SDS011;17218;54.070;10.012;2022-12-07T07:37:17;6.30;;;4.00;;
30420;SDS011;17218;54.070;10.012;2022-12-07T07:39:43;7.00;;;4.17;;
30420;SDS011;17218;54.070;10.012;2022-12-07T07:42:10;7.73;;;3.93;;
30420;SDS011;17218;54.070;10.012;2022-12-07T07:44:38;5.77;;;4.30;;
30420;SDS011;17218;54.070;10.012;2022-12-07T07:47:05;6.87;;;4.20;;
30420;SDS011;17218;54.070;10.012;2022-12-07T07:49:31;8.67;;;4.30;;
30420;SDS011;17218;54.070;10.012;2022-12-07T07:51:58;4.63;;;3.57;;
30420;SDS011;17218;54.070;10.012;2022-12-07T07:54:24;6.73;;;3.70;;
30420;SDS011;17218;54.070;10.012;2022-12-07T07:56:51;6.80;;;3.83;;
30420;SDS011;17218;54.070;10.012;2022-12-07T07:59:18;6.33;;;4.00;;
30420;SDS011;17218;54.070;10.012;2022-12-07T08:01:46;6.33;;;4.23;;
30420;SDS011;17218;54.070;10.012;2022-12-07T08:04:13;9.13;;;3.77;;
30420;SDS011;17218;54.070;10.012;2022-12-07T08:06:39;5.60;;;3.60;;
30420;SDS011;17218;54.070;10.012;2022-12-07T08:09:07;5.17;;;3.90;;
30420;SDS011;17218;54.070;10.012;2022-12-07T08:11:35;8.27;;;4.20;;
30420;SDS011;17218;54.070;10.012;2022-12-07T08:14:02;9.17;;;4.20;;
30420;SDS011;17218;54.070;10.012;2022-12-07T08:16:29;7.53;;;3.93;;
30420;SDS011;17218;54.070;10.012;2022-12-07T08:18:57;6.10;;;3.63;;
30420;SDS011;17218;54.070;10.012;2022-12-07T08:21:24;9.50;;;4.33;;
30420;SDS011;17218;54.070;10.012;2022-12-07T08:23:50;6.83;;;4.27;;
30420;SDS011;17218;54.070;10.012;2022-12-07T08:26:17;11.60;;;4.00;;
30420;SDS011;17218;54.070;10.012;2022-12-07T08:28:44;6.27;;;3.93;;
30420;SDS011;17218;54.070;10.012;2022-12-07T08:31:11;7.57;;;3.80;;
30420;SDS011;17218;54.070;10.012;2022-12-07T08:33:40;9.80;;;4.50;;
30420;SDS011;17218;54.070;10.012;2022-12-07T08:36:09;6.80;;;3.50;;
30420;SDS011;17218;54.070;10.012;2022-12-07T08:38:37;8.33;;;4.17;;
30420;SDS011;17218;54.070;10.012;2022-12-07T08:41:06;6.43;;;3.83;;
30420;SDS011;17218;54.070;10.012;2022-12-07T08:43:33;5.87;;;3.83;;
30420;SDS011;17218;54.070;10.012;2022-12-07T08:46:03;6.87;;;3.80;;
30420;SDS011;17218;54.070;10.012;2022-12-07T08:48:32;4.50;;;3.23;;
30420;SDS011;17218;54.070;10.012;2022-12-07T08:51:02;7.83;;;4.47;;
30420;SDS011;17218;54.070;10.012;2022-12-07T08:53:30;6.60;;;3.90;;
30420;SDS011;17218;54.070;10.012;2022-12-07T08:55:58;6.13;;;2.97;;
30420;SDS011;17218;54.070;10.012;2022-12-07T08:58:25;7.33;;;3.40;;
30420;SDS011;17218;54.070;10.012;2022-12-07T09:00:52;9.80;;;2.73;;
30420;SDS011;17218;54.070;10.012;2022-12-07T09:03:19;7.67;;;2.80;;
30420;SDS011;17218;54.070;10.012;2022-12-07T09:05:45;4.93;;;1.87;;
30420;SDS011;17218;54.070;10.012;2022-12-07T09:08:12;7.00;;;2.50;;
30420;SDS011;17218;54.070;10.012;2022-12-07T09:10:40;8.27;;;1.50;;
30420;SDS011;17218;54.070;10.012;2022-12-07T09:13:07;6.90;;;2.30;;
30420;SDS011;17218;54.070;10.012;2022-12-07T09:15:33;5.17;;;1.90;;
30420;SDS011;17218;54.070;10.012;2022-12-07T09:18:00;4.07;;;1.70;;
30420;SDS011;17218;54.070;10.012;2022-12-07T09:20:27;10.37;;;1.93;;
30420;SDS011;17218;54.070;10.012;2022-12-07T09:22:53;6.50;;;1.80;;
30420;SDS011;17218;54.070;10.012;2022-12-07T09:25:20;6.13;;;1.90;;
30420;SDS011;17218;54.070;10.012;2022-12-07T09:27:48;7.03;;;1.83;;
30420;SDS011;17218;54.070;10.012;2022-12-07T09:30:21;4.00;;;1.63;;
30420;SDS011;17218;54.070;10.012;2022-12-07T09:32:48;3.60;;;2.10;;
30420;SDS011;17218;54.070;10.012;2022-12-07T09:35:14;5.23;;;1.60;;
30420;SDS011;17218;54.070;10.012;2022-12-07T09:37:41;4.53;;;1.40;;
30420;SDS011;17218;54.070;10.012;2022-12-07T09:40:08;6.03;;;1.80;;
30420;SDS011;17218;54.070;10.012;2022-12-07T09:42:35;2.83;;;1.30;;
30420;SDS011;17218;54.070;10.012;2022-12-07T09:45:06;3.33;;;1.40;;
30420;SDS011;17218;54.070;10.012;2022-12-07T09:47:38;3.93;;;1.23;;
30420;SDS011;17218;54.070;10.012;2022-12-07T09:50:05;5.17;;;1.40;;
30420;SDS011;17218;54.070;10.012;2022-12-07T09:52:39;2.93;;;1.13;;
30420;SDS011;17218;54.070;10.012;2022-12-07T09:55:11;7.70;;;1.47;;
30420;SDS011;17218;54.070;10.012;2022-12-07T09:57:39;4.40;;;1.60;;
30420;SDS011;17218;54.070;10.012;2022-12-07T10:00:10;4.33;;;1.30;;
30420;SDS011;17218;54.070;10.012;2022-12-07T10:02:40;5.80;;;1.20;;
30420;SDS011;17218;54.070;10.012;2022-12-07T10:05:10;5.10;;;1.73;;
30420;SDS011;17218;54.070;10.012;2022-12-07T10:07:39;7.27;;;1.47;;
30420;SDS011;17218;54.070;10.012;2022-12-07T10:10:09;7.10;;;1.50;;
30420;SDS011;17218;54.070;10.012;2022-12-07T10:12:53;4.83;;;1.40;;
30420;SDS011;17218;54.070;10.012;2022-12-07T10:15:24;8.73;;;1.90;;
30420;SDS011;17218;54.070;10.012;2022-12-07T10:18:16;6.63;;;1.40;;
30420;SDS011;17218;54.070;10.012;2022-12-07T10:20:45;6.37;;;1.47;;
30420;SDS011;17218;54.070;10.012;2022-12-07T10:23:14;5.50;;;1.77;;
30420;SDS011;17218;54.070;10.012;2022-12-07T10:25:42;3.90;;;1.73;;
30420;SDS011;17218;54.070;10.012;2022-12-07T10:28:11;7.17;;;1.87;;
30420;SDS011;17218;54.070;10.012;2022-12-07T10:30:55;4.43;;;1.60;;
30420;SDS011;17218;54.070;10.012;2022-12-07T10:33:31;5.57;;;1.70;;
30420;SDS011;17218;54.070;10.012;2022-12-07T10:36:01;8.60;;;1.60;;
30420;SDS011;17218;54.070;10.012;2022-12-07T10:38:44;5.20;;;1.60;;
30420;SDS011;17218;54.070;10.012;2022-12-07T10:41:12;6.60;;;1.70;;
30420;SDS011;17218;54.070;10.012;2022-12-07T10:43:43;7.40;;;1.50;;
30420;SDS011;17218;54.070;10.012;2022-12-07T10:46:20;4.63;;;1.10;;
30420;SDS011;17218;54.070;10.012;2022-12-07T10:49:25;6.83;;;1.10;;
30420;SDS011;17218;54.070;10.012;2022-12-07T10:52:22;2.43;;;1.27;;
30420;SDS011;17218;54.070;10.012;2022-12-07T10:55:03;6.30;;;1.70;;
30420;SDS011;17218;54.070;10.012;2022-12-07T10:57:41;3.77;;;1.40;;
30420;SDS011;17218;54.070;10.012;2022-12-07T11:00:21;5.00;;;1.10;;
30420;SDS011;17218;54.070;10.012;2022-12-07T11:02:59;4.80;;;1.50;;
30420;SDS011;17218;54.070;10.012;2022-12-07T11:05:42;6.53;;;1.00;;
30420;SDS011;17218;54.070;10.012;2022-12-07T11:08:18;4.37;;;1.70;;
30420;SDS011;17218;54.070;10.012;2022-12-07T11:10:56;5.63;;;1.80;;
30420;SDS011;17218;54.070;10.012;2022-12-07T11:13:29;2.50;;;1.00;;
30420;SDS011;17218;54.070;10.012;2022-12-07T11:16:17;5.07;;;1.07;;
30420;SDS011;17218;54.070;10.012;2022-12-07T11:18:52;2.50;;;0.90;;
30420;SDS011;17218;54.070;10.012;2022-12-07T11:21:30;3.73;;;1.30;;
30420;SDS011;17218;54.070;10.012;2022-12-07T11:24:01;4.60;;;1.40;;
30420;SDS011;17218;54.070;10.012;2022-12-07T11:26:41;2.53;;;0.83;;
30420;SDS011;17218;54.070;10.012;2022-12-07T11:29:35;5.17;;;1.03;;
30420;SDS011;17218;54.070;10.012;2022-12-07T11:32:15;4.43;;;1.27;;
30420;SDS011;17218;54.070;10.012;2022-12-07T11:34:51;3.67;;;0.83;;
30420;SDS011;17218;54.070;10.012;2022-12-07T11:37:28;2.10;;;0.80;;
30420;SDS011;17218;54.070;10.012;2022-12-07T11:39:59;2.30;;;1.03;;
30420;SDS011;17218;54.070;10.012;2022-12-07T11:42:29;4.60;;;1.00;;
30420;SDS011;17218;54.070;10.012;2022-12-07T11:45:02;3.50;;;0.80;;
30420;SDS011;17218;54.070;10.012;2022-12-07T11:47:38;4.03;;;0.90;;
30420;SDS011;17218;54.070;10.012;2022-12-07T11:50:14;3.00;;;1.00;;
30420;SDS011;17218;54.070;10.012;2022-12-07T11:52:51;2.53;;;0.93;;
30420;SDS011;17218;54.070;10.012;2022-12-07T11:55:24;4.17;;;0.90;;
30420;SDS011;17218;54.070;10.012;2022-12-07T11:57:57;1.50;;;0.83;;
30420;SDS011;17218;54.070;10.012;2022-12-07T12:00:29;3.13;;;0.90;;
30420;SDS011;17218;54.070;10.012;2022-12-07T12:02:57;5.53;;;0.90;;
30420;SDS011;17218;54.070;10.012;2022-12-07T12:05:29;2.93;;;0.67;;
30420;SDS011;17218;54.070;10.012;2022-12-07T12:07:59;1.43;;;0.57;;
30420;SDS011;17218;54.070;10.012;2022-12-07T12:10:34;1.57;;;0.60;;
30420;SDS011;17218;54.070;10.012;2022-12-07T12:13:14;3.00;;;0.90;;
30420;SDS011;17218;54.070;10.012;2022-12-07T12:16:10;4.00;;;0.93;;
30420;SDS011;17218;54.070;10.012;2022-12-07T12:18:56;4.63;;;0.63;;
30420;SDS011;17218;54.070;10.012;2022-12-07T12:21:33;3.70;;;0.53;;
30420;SDS011;17218;54.070;10.012;2022-12-07T12:24:02;2.13;;;0.70;;
30420;SDS011;17218;54.070;10.012;2022-12-07T12:26:35;2.57;;;1.03;;
30420;SDS011;17218;54.070;10.012;2022-12-07T12:29:04;1.83;;;0.57;;
30420;SDS011;17218;54.070;10.012;2022-12-07T12:31:35;3.93;;;0.93;;
30420;SDS011;17218;54.070;10.012;2022-12-07T12:34:10;1.87;;;0.90;;
30420;SDS011;17218;54.070;10.012;2022-12-07T12:37:00;0.93;;;0.60;;
30420;SDS011;17218;54.070;10.012;2022-12-07T12:39:26;2.07;;;0.70;;
30420;SDS011;17218;54.070;10.012;2022-12-07T12:41:57;3.73;;;0.40;;
30420;SDS011;17218;54.070;10.012;2022-12-07T12:50:29;1.63;;;0.70;;
30420;SDS011;17218;54.070;10.012;2022-12-07T12:53:11;6.13;;;0.77;;
30420;SDS011;17218;54.070;10.012;2022-12-07T12:56:00;3.37;;;1.13;;
30420;SDS011;17218;54.070;10.012;2022-12-07T13:01:50;3.50;;;0.90;;
30420;SDS011;17218;54.070;10.012;2022-12-07T13:04:39;4.23;;;0.77;;
30420;SDS011;17218;54.070;10.012;2022-12-07T13:10:21;3.47;;;0.93;;
30420;SDS011;17218;54.070;10.012;2022-12-07T13:13:02;1.80;;;0.60;;
30420;SDS011;17218;54.070;10.012;2022-12-07T13:15:32;1.07;;;0.60;;
30420;SDS011;17218;54.070;10.012;2022-12-07T13:18:02;2.83;;;0.60;;
30420;SDS011;17218;54.070;10.012;2022-12-07T13:20:48;1.03;;;0.40;;
30420;SDS011;17218;54.070;10.012;2022-12-07T13:23:24;3.83;;;0.80;;
30420;SDS011;17218;54.070;10.012;2022-12-07T13:26:09;4.10;;;0.80;;
30420;SDS011;17218;54.070;10.012;2022-12-07T13:28:41;3.10;;;0.77;;
30420;SDS011;17218;54.070;10.012;2022-12-07T13:31:14;5.40;;;0.70;;
30420;SDS011;17218;54.070;10.012;2022-12-07T13:33:45;4.97;;;0.80;;
30420;SDS011;17218;54.070;10.012;2022-12-07T13:36:16;1.80;;;0.80;;
30420;SDS011;17218;54.070;10.012;2022-12-07T13:38:49;2.03;;;0.80;;
30420;SDS011;17218;54.070;10.012;2022-12-07T13:41:20;3.07;;;0.70;;
30420;SDS011;17218;54.070;10.012;2022-12-07T13:43:52;4.20;;;0.70;;
30420;SDS011;17218;54.070;10.012;2022-12-07T13:46:26;2.93;;;0.77;;
30420;SDS011;17218;54.070;10.012;2022-12-07T13:48:58;4.17;;;0.60;;
30420;SDS011;17218;54.070;10.012;2022-12-07T13:51:25;1.30;;;0.60;;
30420;SDS011;17218;54.070;10.012;2022-12-07T13:53:54;0.87;;;0.60;;
30420;SDS011;17218;54.070;10.012;2022-12-07T13:56:25;3.73;;;0.70;;
30420;SDS011;17218;54.070;10.012;2022-12-07T13:58:58;1.67;;;0.90;;
30420;SDS011;17218;54.070;10.012;2022-12-07T14:01:25;3.97;;;0.70;;
30420;SDS011;17218;54.070;10.012;2022-12-07T14:03:52;2.23;;;0.70;;
30420;SDS011;17218;54.070;10.012;2022-12-07T14:06:25;4.97;;;0.97;;
30420;SDS011;17218;54.070;10.012;2022-12-07T14:09:05;2.33;;;0.90;;
30420;SDS011;17218;54.070;10.012;2022-12-07T14:11:35;2.03;;;0.60;;
30420;SDS011;17218;54.070;10.012;2022-12-07T14:14:02;2.90;;;0.80;;
30420;SDS011;17218;54.070;10.012;2022-12-07T14:16:30;1.87;;;1.00;;
30420;SDS011;17218;54.070;10.012;2022-12-07T14:18:59;3.10;;;1.20;;
30420;SDS011;17218;54.070;10.012;2022-12-07T14:21:27;5.10;;;1.90;;
30420;SDS011;17218;54.070;10.012;2022-12-07T14:24:11;3.70;;;1.10;;
30420;SDS011;17218;54.070;10.012;2022-12-07T14:26:43;5.10;;;1.27;;
30420;SDS011;17218;54.070;10.012;2022-12-07T14:34:53;2.13;;;0.60;;
30420;SDS011;17218;54.070;10.012;2022-12-07T14:37:25;2.77;;;0.80;;
30420;SDS011;17218;54.070;10.012;2022-12-07T14:39:52;0.60;;;0.60;;
30420;SDS011;17218;54.070;10.012;2022-12-07T14:42:20;1.80;;;1.37;;
30420;SDS011;17218;54.070;10.012;2022-12-07T14:44:52;3.10;;;0.70;;
30420;SDS011;17218;54.070;10.012;2022-12-07T14:47:18;2.10;;;0.53;;
30420;SDS011;17218;54.070;10.012;2022-12-07T14:49:45;2.20;;;0.67;;
30420;SDS011;17218;54.070;10.012;2022-12-07T14:52:13;3.63;;;0.70;;
30420;SDS011;17218;54.070;10.012;2022-12-07T14:54:43;1.73;;;0.63;;
30420;SDS011;17218;54.070;10.012;2022-12-07T14:57:10;2.50;;;1.00;;
30420;SDS011;17218;54.070;10.012;2022-12-07T14:59:38;2.63;;;0.67;;
30420;SDS011;17218;54.070;10.012;2022-12-07T15:02:05;1.57;;;0.50;;
30420;SDS011;17218;54.070;10.012;2022-12-07T15:04:32;4.33;;;0.70;;
30420;SDS011;17218;54.070;10.012;2022-12-07T15:07:00;2.07;;;0.70;;
30420;SDS011;17218;54.070;10.012;2022-12-07T15:09:28;1.00;;;0.53;;